Strensall, United Kingdom
Current Conditions -  °F | °C
As of 9:50 AM on Friday 31 Oct 2014 (Local Time) from EGXU Reporting Station
Haze Haze  
Wind Chill: 16°   Ceiling: 24000
Heat Index: 16°   Visibility: 3mi
Dew Point: 14°   Wind: 15mph
Humidity: 88%   Direction: 160°SSE
Pressure: 29.91"   Gusts: NA
Location:  54.04°N, 1.04°W
Report Text: EGXU 310950Z 16013KT 5000 HZ SCT026 OVC240 16/14 Q1013 WHT BECMG 9999 NSW BLU
Loading
Personal Weather Stations






























Interactive Weather Map
Tropical Storm Tracking
New forecast layout! Learn more

10-Day Weather Forecast

Advertisements
Track Severe Weather on mobile